createdAt,value
2023-06-05T10:33:55.892Z,9.404602
2023-06-05T10:39:08.080Z,9.339569
2023-06-05T10:44:20.234Z,9.189774
2023-06-05T10:49:32.417Z,9.08139
2023-06-05T10:54:44.603Z,9.224716
2023-06-05T10:59:57.263Z,8.8806
2023-06-05T11:05:09.464Z,8.48793
2023-06-05T11:10:21.954Z,8.879044
2023-06-05T11:15:34.468Z,9.334534
2023-06-05T11:20:46.751Z,8.845993
2023-06-05T11:25:59.119Z,7.915405
2023-06-05T11:31:11.397Z,7.69812
2023-06-05T11:36:23.585Z,7.770416
2023-06-05T11:41:35.760Z,7.684525
2023-06-05T11:46:48.160Z,7.477341
2023-06-05T11:52:00.318Z,7.222885
2023-06-05T11:57:12.616Z,7.659805
2023-06-05T12:02:25.382Z,6.806107
2023-06-05T12:07:37.607Z,6.425308
2023-06-05T12:12:49.779Z,6.345581
2023-06-05T12:18:02.102Z,7.168015
2023-06-05T12:23:14.282Z,5.754028
2023-06-05T12:28:26.433Z,7.269867
2023-06-05T12:33:38.649Z,6.124298
2023-06-05T12:38:51.349Z,6.024872
2023-06-05T12:44:03.512Z,6.590347
2023-06-05T12:49:16.177Z,5.960388
2023-06-05T12:54:28.322Z,5.659653
2023-06-05T12:59:40.553Z,5.873032
2023-06-05T13:04:52.779Z,5.167877
2023-06-05T13:10:04.991Z,5.229752
2023-06-05T13:15:17.352Z,5.671753
2023-06-05T13:20:29.705Z,5.896118
2023-06-05T13:25:42.744Z,5.604736
2023-06-05T13:30:54.953Z,5.582199
2023-06-05T13:36:07.384Z,5.735825
2023-06-05T13:41:19.864Z,5.264099
2023-06-05T13:46:32.074Z,5.234573
2023-06-05T13:51:44.345Z,5.826813
2023-06-05T13:56:56.507Z,5.359192
2023-06-05T14:02:08.710Z,3.810654
2023-06-05T14:07:20.884Z,4.182404
2023-06-05T14:12:33.101Z,3.882767
2023-06-05T14:17:45.287Z,3.320084
2023-06-05T14:22:57.519Z,4.937164
2023-06-05T14:28:09.755Z,5.739548
2023-06-05T14:33:21.905Z,4.926071
2023-06-05T14:38:34.075Z,4.336395
2023-06-05T14:43:46.252Z,4.73259
2023-06-05T14:48:58.333Z,5.940109
2023-06-05T14:54:10.620Z,4.945145
2023-06-05T15:04:47.970Z,5.471008
2023-06-05T15:10:00.449Z,5.781769
2023-06-05T15:20:38.234Z,5.768021
2023-06-05T15:25:50.502Z,6.633713
2023-06-05T15:31:02.654Z,5.346039
2023-06-05T15:36:15.453Z,5.51976
2023-06-05T15:41:27.621Z,5.188171
2023-06-05T15:46:41.395Z,4.928574
2023-06-05T15:51:53.720Z,4.836334
2023-06-05T15:57:08.888Z,4.648422
2023-06-05T16:02:21.082Z,4.775391
2023-06-05T16:07:33.221Z,4.638855
2023-06-05T16:12:45.437Z,4.260437
2023-06-05T16:17:57.669Z,4.118301
2023-06-05T16:23:09.825Z,4.156982
2023-06-05T16:28:22.078Z,4.378021
2023-06-05T16:33:34.261Z,5.112625
2023-06-05T16:38:46.406Z,4.649826
2023-06-05T16:43:58.562Z,4.930328
2023-06-05T16:49:10.764Z,4.519531
2023-06-05T16:54:23.154Z,5.258682
2023-06-05T16:59:35.330Z,5.010529
2023-06-05T17:04:47.763Z,4.132263
2023-06-05T17:10:01.243Z,4.252029
2023-06-05T17:15:16.853Z,4.90274
2023-06-05T17:20:33.345Z,4.416901
2023-06-05T17:25:45.537Z,4.504974
2023-06-05T17:30:57.684Z,4.445435
2023-06-05T17:36:09.841Z,4.59758
2023-06-05T17:41:22.386Z,4.817993
2023-06-05T17:46:34.498Z,4.612
2023-06-05T17:51:46.841Z,4.734741
2023-06-05T17:56:59.223Z,4.948624
2023-06-05T18:02:11.466Z,5.036728
2023-06-05T18:07:23.673Z,5.85791
2023-06-05T18:12:35.854Z,4.746765
2023-06-05T18:17:48.089Z,5.203705
2023-06-05T18:23:00.607Z,4.844025
2023-06-05T18:28:13.281Z,4.691208
2023-06-05T18:33:27.904Z,4.808136
2023-06-05T18:38:40.229Z,4.651794
2023-06-05T18:43:52.392Z,4.708679
2023-06-05T18:49:05.076Z,4.92543
2023-06-05T18:54:17.223Z,4.852676
2023-06-05T18:59:29.889Z,4.788071
2023-06-05T19:04:42.612Z,4.911072
2023-06-05T19:09:54.886Z,4.901337
2023-06-05T19:15:07.053Z,4.858154
2023-06-05T19:20:19.826Z,5.059998
2023-06-05T19:25:32.359Z,4.89389
2023-06-05T19:30:44.667Z,5.096924
2023-06-05T19:35:56.839Z,4.9319
2023-06-05T19:41:09.301Z,4.84761
2023-06-05T19:46:21.871Z,4.932404
2023-06-05T19:56:51.855Z,4.853134
2023-06-05T20:02:04.026Z,4.847763
2023-06-05T20:07:16.443Z,4.888412
2023-06-05T20:12:28.617Z,4.849869
2023-06-05T20:17:40.838Z,6.253021
2023-06-05T20:22:53.075Z,8.674484
2023-06-05T20:28:05.299Z,9.82309
2023-06-05T20:33:19.582Z,10.21947
2023-06-05T20:38:31.844Z,10.36906
2023-06-05T20:43:43.994Z,10.74696
2023-06-05T20:48:56.161Z,10.65791
2023-06-05T20:54:08.313Z,10.8152
2023-06-05T21:04:38.753Z,11.19817
2023-06-05T21:09:51.072Z,11.22887
2023-06-05T21:15:06.458Z,11.22835
2023-06-05T21:20:18.613Z,11.19974
2023-06-05T21:25:30.847Z,10.51868
2023-06-05T21:30:43.130Z,11.0477
2023-06-05T21:35:55.351Z,11.07825
2023-06-05T21:41:07.627Z,11.09302
2023-06-05T21:46:19.914Z,10.87985
2023-06-05T21:51:32.162Z,10.92992
2023-06-05T21:56:44.858Z,10.92509
2023-06-05T22:01:57.181Z,10.06931
2023-06-05T22:07:09.818Z,10.30475
2023-06-05T22:12:22.356Z,9.89415
2023-06-05T22:17:35.144Z,9.444855
2023-06-05T22:22:47.382Z,9.429291
2023-06-05T22:28:00.349Z,8.955688
2023-06-05T22:33:13.157Z,9.016403
2023-06-05T22:38:27.083Z,9.319092
2023-06-05T22:43:40.053Z,10.35526
2023-06-05T22:48:53.326Z,10.55347
2023-06-05T22:54:05.856Z,10.63617
2023-06-05T22:59:18.199Z,10.40976
2023-06-05T23:04:32.377Z,10.67125
2023-06-05T23:09:44.681Z,10.88547
2023-06-05T23:14:56.825Z,10.76521
2023-06-05T23:20:09.060Z,10.57733
2023-06-05T23:25:21.234Z,10.69931
2023-06-05T23:30:33.431Z,10.84644
2023-06-05T23:35:45.585Z,10.57855
2023-06-05T23:41:00.863Z,10.66562
2023-06-05T23:46:14.035Z,10.64291
2023-06-05T23:51:27.134Z,10.37936
2023-06-05T23:56:39.944Z,10.45119
